Terminal Aerodrome Forecast
Issued by NWS Charleston, WV

Current Version | Previous Version | Text Only | Print | Product List | Glossary Off
Versions: 1 2 3 4 5 6 7 8 9 10 11 12 13 14 15 16 17 18 19 20 21 22

397
FTUS41 KRLX 222325
TAFEKN
TAF
KEKN 222325Z 2300/2324 VRB03KT P6SM SKC
     FM230800 00000KT 3SM BR FEW001
     FM230900 00000KT 1/2SM FG BKN001
     FM231300 VRB02KT P6SM SCT001
     FM231400 VRB03KT P6SM SKC
     FM231800 31006KT P6SM FEW045=

USA.gov is the U.S. government's official web portal to all federal, state and local government web resources and services.